Time;durP1;ratioP1;P1;durP2;ratioP2;P2;SDS_P1;SDS_P2;PMS_P1;PMS_P2;Temp;Humidity;BMP_temperature;BMP_pressure;BME280_temperature;BME280_humidity;BME280_pressure;Samples;Min_cycle;Max_cycle;Signal;HPM_P1;HPM_P2
2022/06/09 00:01:01;;;;;;;54.83;15.93;;;14.10;99.90;;;;;;5100710;28;20036;-75
2022/06/09 00:03:40;;;;;;;52.33;15.95;;;14.10;99.90;;;;;;5102745;28;20040;-75
2022/06/09 00:06:09;;;;;;;62.65;17.55;;;14.10;99.90;;;;;;5101203;28;20050;-76
2022/06/09 00:08:35;;;;;;;58.42;16.85;;;14.10;99.90;;;;;;5081450;28;20097;-75
2022/06/09 00:11:05;;;;;;;58.22;17.90;;;14.00;99.90;;;;;;5079753;28;20055;-75
2022/06/09 00:13:30;;;;;;;51.45;16.13;;;14.00;99.90;;;;;;5081364;28;20048;-75
2022/06/09 00:15:56;;;;;;;63.72;18.02;;;14.00;99.90;;;;;;5080706;28;20125;-75
2022/06/09 00:18:23;;;;;;;54.45;15.60;;;13.90;99.90;;;;;;5081326;28;20051;-75
2022/06/09 00:20:48;;;;;;;56.42;16.48;;;14.00;99.90;;;;;;5087998;28;20507;-75
2022/06/09 00:23:16;;;;;;;55.33;15.77;;;13.90;99.90;;;;;;5099603;28;20048;-75
2022/06/09 00:25:42;;;;;;;77.60;18.35;;;14.00;99.90;;;;;;5100395;28;20055;-75
2022/06/09 00:28:08;;;;;;;67.82;18.98;;;13.90;99.90;;;;;;5102078;28;20396;-75
2022/06/09 00:30:34;;;;;;;64.15;18.52;;;13.90;99.90;;;;;;5097112;28;20055;-75
2022/06/09 00:33:00;;;;;;;59.38;16.60;;;13.90;99.90;;;;;;5083724;28;20052;-75
2022/06/09 00:35:26;;;;;;;59.03;17.65;;;14.30;99.90;;;;;;5083148;28;20048;-75
2022/06/09 00:37:51;;;;;;;55.55;17.58;;;13.90;99.90;;;;;;5082322;28;20044;-75
2022/06/09 00:40:17;;;;;;;53.90;16.45;;;14.00;99.90;;;;;;5084179;28;20044;-75
2022/06/09 00:42:43;;;;;;;63.03;17.08;;;14.00;99.90;;;;;;5102857;28;20092;-75
2022/06/09 00:45:33;;;;;;;60.47;18.67;;;14.10;99.90;;;;;;5102927;28;20080;-75
2022/06/09 00:48:14;;;;;;;55.55;16.33;;;14.10;99.90;;;;;;5102625;28;20492;-78
2022/06/09 00:50:42;;;;;;;62.53;18.45;;;14.00;99.90;;;;;;5097790;28;20032;-75
2022/06/09 00:53:17;;;;;;;62.78;18.73;;;14.00;99.90;;;;;;5091953;28;20424;-75
2022/06/09 00:55:43;;;;;;;61.97;18.63;;;14.00;99.90;;;;;;5101842;28;20040;-76
2022/06/09 00:58:13;;;;;;;73.05;18.88;;;14.10;99.90;;;;;;5102603;28;20074;-75
2022/06/09 01:00:49;;;;;;;55.53;16.88;;;14.10;99.90;;;;;;5103048;28;20040;-75
2022/06/09 01:03:17;;;;;;;69.47;18.33;;;14.10;99.90;;;;;;5103419;28;20553;-75
2022/06/09 01:05:45;;;;;;;70.35;20.55;;;14.00;99.90;;;;;;5086779;28;20121;-75
2022/06/09 01:08:12;;;;;;;71.03;21.15;;;14.00;99.90;;;;;;5103433;28;20085;-75
2022/06/09 01:10:38;;;;;;;62.97;19.08;;;14.00;99.90;;;;;;5104519;28;20042;-76
2022/06/09 01:13:04;;;;;;;59.03;17.83;;;14.00;99.90;;;;;;5105235;28;20041;-75
2022/06/09 01:15:50;;;;;;;71.50;20.80;;;14.00;99.90;;;;;;5107522;28;20040;-78
2022/06/09 01:18:53;;;;;;;52.67;17.77;;;14.00;99.90;;;;;;5094961;28;20044;-75
2022/06/09 01:21:40;;;;;;;61.00;19.15;;;15.00;99.90;;;;;;5098653;28;20323;-76
2022/06/09 01:24:51;;;;;;;82.70;19.08;;;14.00;99.90;;;;;;5084469;28;20045;-75
2022/06/09 01:27:53;;;;;;;65.38;21.27;;;13.90;99.90;;;;;;5059704;28;20044;-75
2022/06/09 01:30:22;;;;;;;65.03;18.55;;;13.90;99.90;;;;;;5102643;28;20032;-75
2022/06/09 01:32:57;;;;;;;66.03;20.90;;;13.90;99.90;;;;;;5103548;28;20044;-75
2022/06/09 01:35:38;;;;;;;71.40;21.13;;;14.00;99.90;;;;;;5107034;28;20458;-75
2022/06/09 01:38:04;;;;;;;54.05;19.42;;;14.00;99.90;;;;;;5109180;28;20290;-75
2022/06/09 01:40:29;;;;;;;56.92;18.25;;;14.00;99.90;;;;;;5108465;28;20044;-76
2022/06/09 01:42:58;;;;;;;60.67;19.23;;;14.10;99.90;;;;;;5105500;28;20044;-77
2022/06/09 01:45:37;;;;;;;55.60;19.73;;;13.90;99.90;;;;;;5105950;28;20062;-76
2022/06/09 01:48:18;;;;;;;64.18;20.52;;;13.90;99.90;;;;;;5085822;28;20047;-76
2022/06/09 01:51:00;;;;;;;58.60;19.67;;;13.90;99.90;;;;;;5083780;28;20036;-76
2022/06/09 01:53:38;;;;;;;72.55;21.80;;;14.00;99.90;;;;;;5084041;28;20150;-77
2022/06/09 01:56:19;;;;;;;70.20;19.27;;;13.90;99.90;;;;;;5089772;28;20051;-76
2022/06/09 02:01:32;;;;;;;66.13;21.33;;;13.80;99.90;;;;;;5068328;28;19978;-82
2022/06/09 02:04:04;;;;;;;66.22;21.35;;;13.70;99.90;;;;;;5057350;28;20048;-82
2022/06/09 02:06:31;;;;;;;70.43;20.48;;;13.70;99.90;;;;;;5087721;28;20039;-80
2022/06/09 02:08:57;;;;;;;69.30;20.92;;;13.70;99.90;;;;;;5075058;28;20041;-82
2022/06/09 02:11:22;;;;;;;70.70;20.13;;;13.70;99.90;;;;;;5078552;28;20098;-82
2022/06/09 02:13:51;;;;;;;64.22;20.38;;;13.70;99.90;;;;;;5040265;28;20095;-82
2022/06/09 02:16:21;;;;;;;79.05;19.58;;;13.60;99.90;;;;;;5063896;28;20079;-82
2022/06/09 02:18:50;;;;;;;70.72;22.35;;;13.60;99.90;;;;;;5041813;28;20036;-82
2022/06/09 02:21:22;;;;;;;69.28;20.25;;;13.60;99.90;;;;;;5063621;28;20112;-83
2022/06/09 02:23:48;;;;;;;72.65;20.25;;;13.60;99.90;;;;;;5064986;28;20040;-82
2022/06/09 02:26:16;;;;;;;72.75;21.40;;;13.60;99.90;;;;;;5077280;28;20067;-83
2022/06/09 02:28:42;;;;;;;78.90;21.23;;;13.60;99.90;;;;;;5060177;28;20063;-82
2022/06/09 02:31:08;;;;;;;81.95;22.10;;;13.60;99.90;;;;;;5046066;28;20134;-82
2022/06/09 02:33:34;;;;;;;69.30;21.88;;;13.60;99.90;;;;;;5057843;28;20049;-83
2022/06/09 02:35:59;;;;;;;66.65;20.38;;;13.60;99.90;;;;;;5042449;28;20490;-82
2022/06/09 02:38:25;;;;;;;70.47;21.73;;;13.60;99.90;;;;;;5059926;28;20045;-83
2022/06/09 02:40:54;;;;;;;71.18;22.30;;;13.60;99.90;;;;;;5042295;28;20087;-82
2022/06/09 02:43:20;;;;;;;69.88;21.00;;;13.60;99.90;;;;;;5066319;28;20048;-83
2022/06/09 02:45:46;;;;;;;83.80;21.52;;;13.60;99.90;;;;;;5078015;28;20041;-83
2022/06/09 02:48:12;;;;;;;71.07;23.45;;;13.60;99.90;;;;;;5060049;28;20101;-82
2022/06/09 02:50:39;;;;;;;74.22;22.42;;;13.60;99.90;;;;;;5070794;28;20041;-83
2022/06/09 02:53:05;;;;;;;62.22;22.27;;;13.60;99.90;;;;;;5058741;28;20403;-83
2022/06/09 02:55:31;;;;;;;75.63;22.17;;;13.60;99.90;;;;;;5061031;28;20040;-83
2022/06/09 02:57:56;;;;;;;69.50;22.98;;;13.60;99.90;;;;;;5059261;28;20041;-82
2022/06/09 03:00:22;;;;;;;74.90;24.02;;;13.60;99.90;;;;;;5062223;28;20091;-82
2022/06/09 03:02:56;;;;;;;77.55;21.88;;;13.50;99.90;;;;;;5082447;28;20048;-82
2022/06/09 03:05:22;;;;;;;70.75;23.02;;;13.60;99.90;;;;;;5099317;28;20040;-82
2022/06/09 03:07:49;;;;;;;71.63;22.50;;;13.50;99.90;;;;;;5079126;28;20040;-82
2022/06/09 03:10:15;;;;;;;74.35;23.33;;;13.60;99.90;;;;;;5091499;28;20087;-82
2022/06/09 03:12:42;;;;;;;76.38;25.50;;;13.60;99.90;;;;;;5080423;28;20062;-84
2022/06/09 03:15:10;;;;;;;74.85;24.17;;;13.60;99.90;;;;;;5067135;28;20511;-84
2022/06/09 03:17:36;;;;;;;70.53;22.98;;;13.60;99.90;;;;;;5097848;28;20048;-84
2022/06/09 03:20:04;;;;;;;80.82;25.23;;;13.60;99.90;;;;;;5097800;28;20044;-84
2022/06/09 03:22:30;;;;;;;81.88;23.90;;;13.60;99.90;;;;;;5097347;28;20052;-84
2022/06/09 03:24:56;;;;;;;80.10;25.92;;;13.60;99.90;;;;;;5098402;28;20052;-84
2022/06/09 03:27:22;;;;;;;83.78;25.05;;;13.60;99.90;;;;;;5098000;28;20040;-83
2022/06/09 03:29:47;;;;;;;69.80;23.73;;;13.60;99.90;;;;;;5094655;28;20062;-85
2022/06/09 03:32:13;;;;;;;71.10;25.67;;;13.60;99.90;;;;;;5077486;28;20051;-84
2022/06/09 03:34:38;;;;;;;81.60;24.85;;;13.60;99.90;;;;;;5076497;28;20104;-84
2022/06/09 03:37:04;;;;;;;78.22;25.98;;;14.10;99.90;;;;;;5059116;28;20492;-84
2022/06/09 03:39:30;;;;;;;70.60;25.00;;;13.60;99.90;;;;;;5077421;28;20033;-84
2022/06/09 03:41:55;;;;;;;80.30;24.65;;;13.60;99.90;;;;;;5078070;28;20098;-84
2022/06/09 03:44:21;;;;;;;70.28;24.65;;;13.60;99.90;;;;;;5077845;28;20040;-84
2022/06/09 03:46:46;;;;;;;77.13;26.63;;;13.60;99.90;;;;;;5077745;28;20044;-84
2022/06/09 03:49:14;;;;;;;77.80;25.42;;;13.60;99.90;;;;;;5077589;28;20092;-84
2022/06/09 03:51:40;;;;;;;75.07;26.52;;;13.60;99.90;;;;;;5093439;28;20036;-84
2022/06/09 03:54:05;;;;;;;71.25;26.92;;;14.50;99.90;;;;;;5095958;28;20551;-84
2022/06/09 03:56:31;;;;;;;83.00;27.55;;;13.70;99.90;;;;;;5098197;28;20039;-84
2022/06/09 03:58:57;;;;;;;66.85;27.17;;;14.30;99.90;;;;;;5099723;28;20078;-84
2022/06/09 04:01:22;;;;;;;75.68;24.55;;;13.70;99.90;;;;;;5084925;28;20045;-84
2022/06/09 04:03:48;;;;;;;60.67;20.52;;;13.70;99.90;;;;;;5074626;28;20499;-84
2022/06/09 04:06:17;;;;;;;64.53;22.20;;;13.70;99.90;;;;;;5081744;28;20040;-84
2022/06/09 04:08:43;;;;;;;59.65;22.67;;;13.70;99.90;;;;;;5100508;28;20111;-84
2022/06/09 04:11:09;;;;;;;51.15;20.63;;;13.70;99.90;;;;;;5086827;28;20139;-84
2022/06/09 04:13:36;;;;;;;53.75;20.02;;;13.70;99.90;;;;;;5080414;28;20119;-84
2022/06/09 04:16:12;;;;;;;56.53;23.50;;;13.60;99.90;;;;;;5082933;28;20048;-84
2022/06/09 04:18:37;;;;;;;57.45;20.63;;;13.70;99.90;;;;;;5102531;28;20414;-84
2022/06/09 04:21:03;;;;;;;58.95;20.00;;;13.70;99.90;;;;;;5100958;28;20044;-84
2022/06/09 04:23:28;;;;;;;46.40;18.98;;;13.70;99.90;;;;;;5093091;28;20464;-84
2022/06/09 04:25:54;;;;;;;47.90;19.65;;;13.70;99.90;;;;;;5081001;28;20075;-84
2022/06/09 04:28:20;;;;;;;45.97;20.15;;;13.70;99.90;;;;;;5083748;28;20044;-84
2022/06/09 04:30:46;;;;;;;51.22;19.23;;;14.20;99.90;;;;;;5080895;28;20036;-84
2022/06/09 04:33:12;;;;;;;55.55;18.52;;;13.70;99.90;;;;;;5080477;28;20052;-84
2022/06/09 04:35:38;;;;;;;46.15;18.27;;;13.70;99.90;;;;;;5081415;28;20076;-84
2022/06/09 04:38:04;;;;;;;50.95;19.88;;;13.70;99.90;;;;;;5082038;28;20059;-84
2022/06/09 04:40:35;;;;;;;53.60;21.23;;;13.80;99.90;;;;;;5085161;28;20416;-84
2022/06/09 04:43:03;;;;;;;43.92;18.58;;;13.80;99.90;;;;;;5082650;28;20048;-84
2022/06/09 04:45:29;;;;;;;45.95;20.30;;;13.90;99.90;;;;;;5083037;28;20461;-84
2022/06/09 04:47:55;;;;;;;42.03;18.10;;;13.90;99.90;;;;;;5084710;28;20068;-84
2022/06/09 04:50:21;;;;;;;40.78;17.35;;;13.90;99.90;;;;;;5083285;28;20377;-84
2022/06/09 04:52:47;;;;;;;36.50;17.17;;;13.90;99.90;;;;;;5081947;28;20037;-84
2022/06/09 04:55:13;;;;;;;45.55;19.63;;;14.10;99.90;;;;;;5080808;28;20111;-84
2022/06/09 04:57:39;;;;;;;37.97;17.85;;;14.00;99.90;;;;;;5088217;28;20060;-84
2022/06/09 05:00:07;;;;;;;38.25;17.63;;;14.00;99.90;;;;;;5100612;28;20492;-84
2022/06/09 05:02:34;;;;;;;37.33;16.65;;;14.00;99.90;;;;;;5102896;28;20048;-84
2022/06/09 05:04:59;;;;;;;37.67;17.42;;;14.00;99.90;;;;;;5102903;28;20480;-83
2022/06/09 05:07:25;;;;;;;34.55;17.38;;;14.10;99.90;;;;;;5093610;28;20032;-83
2022/06/09 05:09:50;;;;;;;38.05;17.95;;;14.20;99.90;;;;;;5078796;28;20409;-84
2022/06/09 05:12:16;;;;;;;38.25;18.48;;;14.40;99.90;;;;;;5077348;28;20040;-84
2022/06/09 05:14:41;;;;;;;33.63;18.13;;;14.30;99.90;;;;;;5078569;28;20507;-84
2022/06/09 05:17:07;;;;;;;34.63;18.10;;;14.60;99.90;;;;;;5058682;28;20056;-83
2022/06/09 05:19:33;;;;;;;35.38;19.52;;;14.00;99.90;;;;;;5083637;28;20047;-83
2022/06/09 05:21:58;;;;;;;35.00;18.90;;;14.00;99.90;;;;;;5096045;28;20122;-83
2022/06/09 05:24:24;;;;;;;45.00;20.50;;;14.20;99.90;;;;;;5088792;28;20088;-83
2022/06/09 05:26:50;;;;;;;36.85;20.20;;;13.90;99.90;;;;;;5074622;28;20054;-83
2022/06/09 05:29:20;;;;;;;38.35;20.98;;;13.90;99.90;;;;;;5077500;28;20071;-83
2022/06/09 05:31:49;;;;;;;37.83;19.98;;;14.00;99.90;;;;;;5078941;28;20041;-84
2022/06/09 05:34:15;;;;;;;43.40;21.60;;;14.00;99.90;;;;;;5076192;28;20041;-84
2022/06/09 05:36:40;;;;;;;37.85;20.70;;;14.00;99.90;;;;;;5077937;28;20191;-83
2022/06/09 05:44:54;;;;;;;45.42;22.25;;;14.00;99.90;;;;;;5076352;28;20084;-84
2022/06/09 05:47:21;;;;;;;37.22;21.92;;;14.40;99.90;;;;;;5078344;28;20419;-84
2022/06/09 05:49:48;;;;;;;38.70;21.23;;;14.20;99.90;;;;;;5078231;28;20087;-84
2022/06/09 05:52:19;;;;;;;39.83;21.83;;;14.50;99.90;;;;;;5078002;28;20032;-84
2022/06/09 05:54:45;;;;;;;40.35;22.60;;;14.50;99.90;;;;;;5078144;28;20048;-84
2022/06/09 05:57:11;;;;;;;33.83;20.75;;;15.20;99.90;;;;;;5078352;28;20051;-84
2022/06/09 05:59:37;;;;;;;33.80;20.77;;;15.40;99.90;;;;;;5078763;28;20048;-84
2022/06/09 06:02:04;;;;;;;40.72;22.20;;;14.70;99.90;;;;;;5082234;28;20110;-83
2022/06/09 06:04:30;;;;;;;39.78;22.92;;;14.80;99.90;;;;;;5089076;28;20040;-84
2022/06/09 06:06:55;;;;;;;36.85;21.02;;;15.00;99.90;;;;;;5099017;28;20457;-84
2022/06/09 06:09:21;;;;;;;35.35;21.45;;;14.90;99.90;;;;;;5082436;28;20054;-84
2022/06/09 06:11:47;;;;;;;32.67;21.35;;;15.40;99.90;;;;;;5098956;28;20093;-84
2022/06/09 06:14:14;;;;;;;35.67;20.60;;;14.70;99.90;;;;;;5078751;28;20044;-83
2022/06/09 06:16:40;;;;;;;29.70;19.90;;;14.70;99.90;;;;;;5093931;28;20385;-83
2022/06/09 06:19:08;;;;;;;35.33;20.55;;;14.70;99.90;;;;;;5088142;28;20044;-83
2022/06/09 06:21:36;;;;;;;38.55;21.30;;;14.60;99.90;;;;;;5089368;28;20127;-84
2022/06/09 06:24:03;;;;;;;36.17;22.88;;;14.50;99.90;;;;;;5080361;28;20040;-83
2022/06/09 06:26:31;;;;;;;34.05;22.25;;;14.50;99.90;;;;;;5085510;28;20040;-83
2022/06/09 06:28:57;;;;;;;35.22;22.70;;;14.70;99.90;;;;;;5079098;28;20048;-83
2022/06/09 06:31:22;;;;;;;36.53;23.10;;;15.10;99.90;;;;;;5079277;28;20067;-84
2022/06/09 06:33:48;;;;;;;37.10;22.23;;;14.80;99.90;;;;;;5092544;28;20099;-84
2022/06/09 06:36:14;;;;;;;35.10;22.00;;;14.90;99.90;;;;;;5099860;28;20036;-83
2022/06/09 06:38:40;;;;;;;34.53;21.38;;;15.00;99.90;;;;;;5101720;28;20036;-83
2022/06/09 06:41:07;;;;;;;36.60;23.63;;;15.80;99.90;;;;;;5082647;28;20044;-83
2022/06/09 06:43:33;;;;;;;30.40;20.48;;;15.50;99.90;;;;;;5100660;28;20428;-83
2022/06/09 06:45:59;;;;;;;35.35;21.33;;;15.80;99.90;;;;;;5099770;28;20050;-84
2022/06/09 06:48:25;;;;;;;31.73;21.17;;;16.10;99.90;;;;;;5100890;28;20082;-83
2022/06/09 06:50:51;;;;;;;29.08;20.58;;;16.30;99.90;;;;;;5099332;28;20379;-84
2022/06/09 06:53:16;;;;;;;27.60;19.75;;;17.20;99.90;;;;;;5078534;28;20047;-84
2022/06/09 06:55:42;;;;;;;26.98;18.52;;;17.30;99.90;;;;;;5096406;28;20450;-84
2022/06/09 06:58:09;;;;;;;25.40;17.77;;;17.90;99.90;;;;;;5095616;28;20063;-83
2022/06/09 07:00:35;;;;;;;22.65;17.45;;;18.30;99.90;;;;;;5095684;28;20044;-83
2022/06/09 07:03:07;;;;;;;19.33;16.15;;;18.30;99.90;;;;;;5076767;28;20044;-83
2022/06/09 07:05:33;;;;;;;18.77;16.13;;;18.70;99.90;;;;;;5094516;28;20038;-83
2022/06/09 07:07:58;;;;;;;19.67;15.13;;;19.20;99.90;;;;;;5092582;28;20127;-83
2022/06/09 07:10:24;;;;;;;20.77;14.98;;;19.40;99.90;;;;;;5091996;28;20048;-83
2022/06/09 07:12:50;;;;;;;17.77;14.68;;;19.70;99.90;;;;;;5092174;28;20438;-83
2022/06/09 07:15:16;;;;;;;20.35;15.70;;;19.30;99.90;;;;;;5092186;28;20036;-83
2022/06/09 07:17:42;;;;;;;14.98;13.18;;;19.30;99.90;;;;;;5091919;28;20108;-83
2022/06/09 07:20:10;;;;;;;17.13;13.95;;;19.60;99.90;;;;;;5091864;28;20051;-83
2022/06/09 07:22:36;;;;;;;14.50;11.73;;;19.70;99.90;;;;;;5092754;28;20085;-83
2022/06/09 07:25:02;;;;;;;14.90;11.88;;;19.60;99.90;;;;;;5092155;28;20067;-83
2022/06/09 07:27:28;;;;;;;16.25;11.85;;;19.90;99.90;;;;;;5092481;28;20055;-84
2022/06/09 07:29:54;;;;;;;12.02;9.32;;;20.90;99.90;;;;;;5092922;28;20036;-83
2022/06/09 07:32:21;;;;;;;13.45;9.20;;;22.10;99.90;;;;;;5094671;28;20040;-83
2022/06/09 07:34:47;;;;;;;10.68;8.18;;;22.70;99.90;;;;;;5095598;28;20048;-83
2022/06/09 07:37:12;;;;;;;11.35;8.75;;;22.60;99.90;;;;;;5095830;28;20044;-83
2022/06/09 07:39:38;;;;;;;10.25;8.02;;;22.60;99.90;;;;;;5099096;28;20031;-83
2022/06/09 07:42:04;;;;;;;9.88;7.30;;;22.70;99.90;;;;;;5085141;28;20200;-83
2022/06/09 07:44:30;;;;;;;7.75;6.22;;;23.60;99.90;;;;;;5083644;28;20097;-83
2022/06/09 07:46:56;;;;;;;7.70;5.95;;;24.00;90.10;;;;;;5101249;28;20419;-83
2022/06/09 07:49:21;;;;;;;9.90;5.38;;;23.60;75.30;;;;;;5102741;28;20043;-84
2022/06/09 07:51:47;;;;;;;7.43;6.00;;;23.10;76.60;;;;;;5101491;28;20040;-83
2022/06/09 07:54:13;;;;;;;12.25;5.63;;;22.90;84.00;;;;;;5102832;28;20522;-83
2022/06/09 07:56:38;;;;;;;7.50;5.97;;;23.60;77.80;;;;;;5100044;28;20047;-84
2022/06/09 07:59:08;;;;;;;10.98;6.13;;;23.20;68.30;;;;;;5101045;28;20119;-83
2022/06/09 08:01:34;;;;;;;5.90;4.47;;;22.90;76.00;;;;;;5099738;28;20052;-83
2022/06/09 08:04:00;;;;;;;6.55;3.63;;;23.10;75.00;;;;;;5105700;28;20076;-83
2022/06/09 08:06:26;;;;;;;6.28;3.17;;;23.30;61.90;;;;;;5103161;28;20094;-83
2022/06/09 08:08:55;;;;;;;5.63;2.88;;;23.70;49.40;;;;;;5104438;28;20032;-83
2022/06/09 08:11:22;;;;;;;7.30;3.53;;;23.80;52.40;;;;;;5099919;28;20520;-83
2022/06/09 08:13:47;;;;;;;8.10;3.35;;;23.70;47.40;;;;;;5099702;28;20488;-83
2022/06/09 08:16:13;;;;;;;6.22;2.95;;;22.90;51.10;;;;;;5090256;28;20076;-83
2022/06/09 08:18:39;;;;;;;8.30;2.45;;;23.10;63.00;;;;;;5083296;28;20062;-83
2022/06/09 08:21:05;;;;;;;4.63;2.25;;;23.40;57.90;;;;;;5080824;28;20449;-83
2022/06/09 08:23:30;;;;;;;7.75;2.55;;;24.00;41.80;;;;;;5075082;28;20048;-84
2022/06/09 08:26:03;;;;;;;3.03;1.23;;;24.60;37.50;;;;;;5075189;28;20029;-83
2022/06/09 08:28:29;;;;;;;5.60;2.60;;;24.90;27.70;;;;;;5075059;28;20060;-84
2022/06/09 08:30:56;;;;;;;6.63;2.20;;;25.20;29.20;;;;;;5075033;28;20150;-83
2022/06/09 08:33:23;;;;;;;4.72;1.73;;;25.00;24.50;;;;;;5073828;28;20111;-84
2022/06/09 08:35:50;;;;;;;5.78;2.25;;;23.60;31.70;;;;;;5074291;28;20048;-84
2022/06/09 08:38:16;;;;;;;7.03;1.88;;;23.40;45.60;;;;;;5073889;28;20044;-83
2022/06/09 08:41:22;;;;;;;5.85;1.40;;;23.70;46.80;;;;;;5078152;28;20446;-83
2022/06/09 08:44:09;;;;;;;7.38;1.10;;;24.50;37.40;;;;;;5077769;28;20501;-83
2022/06/09 08:47:06;;;;;;;7.50;1.77;;;24.50;27.40;;;;;;5081773;28;20036;-83
2022/06/09 08:49:35;;;;;;;4.82;1.50;;;24.60;11.50;;;;;;5080953;28;20094;-83
2022/06/09 08:52:19;;;;;;;5.15;1.63;;;24.40;27.60;;;;;;5078351;28;20223;-83
2022/06/09 08:54:46;;;;;;;6.70;1.88;;;24.90;35.10;;;;;;5076806;28;20048;-82
2022/06/09 08:57:17;;;;;;;6.20;1.27;;;25.00;14.80;;;;;;5075991;28;20040;-83
2022/06/09 08:59:48;;;;;;;4.88;1.20;;;25.00;21.50;;;;;;5075795;28;20052;-83
2022/06/09 09:02:38;;;;;;;8.15;1.20;;;25.00;8.00;;;;;;5075401;28;20068;-82
2022/06/09 09:05:26;;;;;;;3.90;1.00;;;24.30;24.40;;;;;;5074176;28;20052;-80
2022/06/09 09:07:55;;;;;;;5.75;1.05;;;24.10;14.40;;;;;;5076570;28;20059;-82
2022/06/09 09:10:23;;;;;;;5.80;1.25;;;24.20;13.80;;;;;;5076693;28;20044;-83
2022/06/09 09:13:14;;;;;;;2.75;0.70;;;24.80;14.60;;;;;;5076820;28;20041;-83
2022/06/09 09:15:48;;;;;;;6.75;1.20;;;25.30;4.70;;;;;;5074964;28;20048;-83
2022/06/09 09:18:53;;;;;;;5.63;1.15;;;25.00;9.90;;;;;;5075773;28;20041;-83
2022/06/09 10:16:05;;;;;;;7.20;1.30;;;22.50;43.10;;;;;;5134611;27;20402;-82
2022/06/09 10:18:32;;;;;;;4.80;1.20;;;23.50;13.60;;;;;;5134635;27;20134;-82
2022/06/09 10:21:06;;;;;;;2.83;0.90;;;23.40;10.40;;;;;;5117526;28;20055;-82
2022/06/09 10:24:01;;;;;;;8.88;1.27;;;23.40;15.00;;;;;;5111967;28;20034;-82
2022/06/09 10:26:33;;;;;;;4.72;1.13;;;23.60;8.20;;;;;;5125621;28;20490;-82
2022/06/09 10:29:22;;;;;;;6.70;1.15;;;23.40;10.90;;;;;;5112215;28;20507;-82
2022/06/09 10:32:05;;;;;;;7.60;1.02;;;23.40;10.90;;;;;;5111127;28;20044;-82
2022/06/09 10:34:54;;;;;;;3.97;1.42;;;23.20;16.00;;;;;;5110996;28;20086;-83
2022/06/09 10:37:28;;;;;;;3.33;0.73;;;22.80;8.50;;;;;;5112719;28;20395;-82
2022/06/09 10:40:06;;;;;;;2.85;1.10;;;22.80;17.10;;;;;;5125883;27;20052;-81
2022/06/09 10:42:36;;;;;;;5.57;0.95;;;23.50;10.10;;;;;;5087765;28;20392;-82
2022/06/09 10:45:25;;;;;;;4.50;1.00;;;23.00;15.20;;;;;;5106687;28;20055;-82
2022/06/09 10:57:58;;;;;;;4.05;1.00;;;23.90;2.60;;;;;;5090516;28;20412;-81
2022/06/09 11:00:51;;;;;;;3.95;0.90;;;24.10;1.00;;;;;;5072932;28;20117;-81
2022/06/09 11:03:19;;;;;;;4.93;1.10;;;24.30;1.00;;;;;;5086039;28;20063;-82
2022/06/09 11:06:10;;;;;;;4.28;0.85;;;24.60;1.00;;;;;;5090926;28;20044;-81
2022/06/09 11:08:57;;;;;;;9.07;1.38;;;24.40;1.00;;;;;;5092833;28;20075;-82
2022/06/09 11:11:40;;;;;;;7.75;1.90;;;24.00;1.00;;;;;;5091511;28;20488;-82
2022/06/09 11:14:15;;;;;;;4.55;0.95;;;23.70;1.00;;;;;;5089824;28;20059;-79
2022/06/09 11:17:05;;;;;;;3.67;1.63;;;23.80;1.00;;;;;;5079697;28;20047;-81
2022/06/09 11:20:11;;;;;;;4.60;1.00;;;24.10;1.00;;;;;;5078146;28;20052;-81
2022/06/09 11:22:56;;;;;;;5.00;1.65;;;23.70;1.00;;;;;;5080455;28;20089;-81
2022/06/09 11:25:32;;;;;;;4.28;1.02;;;23.90;1.00;;;;;;5081138;28;20069;-81
2022/06/09 11:28:03;;;;;;;6.50;0.90;;;24.40;1.00;;;;;;5078439;28;20055;-82
2022/06/09 11:30:35;;;;;;;5.18;0.98;;;25.50;1.00;;;;;;5078262;28;20049;-81
2022/06/09 11:33:04;;;;;;;4.22;1.00;;;26.20;1.00;;;;;;5079145;28;20052;-82
2022/06/09 11:35:59;;;;;;;3.75;0.80;;;26.10;1.00;;;;;;5079043;28;20032;-81
2022/06/09 11:38:33;;;;;;;5.68;0.90;;;26.30;1.00;;;;;;5073129;28;20049;-81
2022/06/09 11:41:08;;;;;;;5.22;0.93;;;26.50;1.00;;;;;;5078196;28;20138;-82
2022/06/09 11:44:02;;;;;;;4.05;1.17;;;27.00;1.00;;;;;;5077460;28;20076;-82
2022/06/09 11:46:46;;;;;;;4.43;0.90;;;26.50;1.00;;;;;;5076654;28;20040;-82
2022/06/09 11:49:36;;;;;;;5.13;1.30;;;26.60;1.00;;;;;;5076917;28;20048;-81
2022/06/09 11:52:06;;;;;;;3.40;1.00;;;26.10;1.00;;;;;;5075638;28;20052;-82
2022/06/09 11:54:53;;;;;;;5.10;1.13;;;24.70;1.00;;;;;;5076944;28;20408;-81
2022/06/09 11:57:34;;;;;;;8.68;2.45;;;25.00;1.00;;;;;;5076372;28;20063;-82
2022/06/09 12:00:18;;;;;;;3.83;0.90;;;25.70;1.00;;;;;;5075715;28;20052;-81
2022/06/09 12:03:17;;;;;;;6.50;2.47;;;26.10;1.00;;;;;;5075886;28;20056;-82
2022/06/09 12:06:06;;;;;;;6.55;0.82;;;25.60;1.00;;;;;;5075396;28;20044;-81
2022/06/09 12:09:01;;;;;;;3.17;1.23;;;25.20;1.00;;;;;;5075512;28;20511;-82
2022/06/09 12:11:55;;;;;;;6.07;0.77;;;25.30;1.00;;;;;;5076022;28;20045;-82
2022/06/09 12:14:31;;;;;;;5.85;1.20;;;25.50;1.00;;;;;;5075070;28;20084;-82
2022/06/09 12:17:16;;;;;;;6.38;1.70;;;24.70;1.00;;;;;;5075308;28;20119;-82
2022/06/09 12:19:55;;;;;;;2.83;0.90;;;23.90;1.00;;;;;;5075183;28;20374;-82
2022/06/09 12:22:58;;;;;;;4.22;0.88;;;24.40;1.00;;;;;;5074157;28;20480;-82
2022/06/09 12:25:33;;;;;;;3.80;0.80;;;24.50;1.00;;;;;;5073495;28;20045;-82
2022/06/09 12:28:00;;;;;;;6.33;1.10;;;24.30;1.00;;;;;;5074134;28;20048;-82
2022/06/09 12:30:35;;;;;;;4.22;0.90;;;24.30;1.00;;;;;;5074994;28;20631;-82
2022/06/09 12:33:29;;;;;;;5.75;1.20;;;23.40;1.00;;;;;;5074749;28;20045;-82
2022/06/09 12:36:07;;;;;;;5.10;1.15;;;24.20;1.00;;;;;;5074498;28;20069;-82
2022/06/09 12:38:53;;;;;;;7.78;1.27;;;24.20;1.00;;;;;;5074691;28;20101;-82
2022/06/09 12:41:23;;;;;;;5.20;1.33;;;24.80;1.00;;;;;;5075069;28;20045;-82
2022/06/09 12:44:17;;;;;;;6.93;1.33;;;26.20;1.00;;;;;;5074644;28;20040;-82
2022/06/09 12:46:43;;;;;;;3.55;0.90;;;25.80;1.00;;;;;;5063464;28;20052;-82
2022/06/09 12:49:20;;;;;;;4.80;1.63;;;27.10;1.00;;;;;;5074348;28;20101;-82
2022/06/09 12:51:46;;;;;;;4.22;1.48;;;26.80;1.00;;;;;;5074291;28;20033;-82
2022/06/09 12:54:41;;;;;;;6.97;1.15;;;27.10;1.00;;;;;;5074058;28;20052;-82
2022/06/09 12:57:17;;;;;;;5.97;1.25;;;26.70;1.00;;;;;;5062410;28;20045;-82
2022/06/09 12:59:44;;;;;;;2.60;1.00;;;26.10;1.00;;;;;;5074801;28;20047;-82
2022/06/09 13:02:16;;;;;;;7.10;1.50;;;25.60;1.00;;;;;;5074020;28;20036;-83
2022/06/09 13:04:50;;;;;;;3.92;1.08;;;24.90;1.00;;;;;;5073484;28;20048;-82
2022/06/09 13:07:28;;;;;;;2.77;1.23;;;24.50;1.00;;;;;;5073914;28;20098;-83
2022/06/09 13:10:00;;;;;;;2.90;0.85;;;24.10;1.00;;;;;;5074026;28;20286;-82
2022/06/09 13:15:33;;;;;;;8.30;1.08;;;24.20;1.00;;;;;;5074668;28;20052;-84
2022/06/09 13:18:11;;;;;;;5.72;1.33;;;24.40;1.00;;;;;;5073650;28;20102;-84
2022/06/09 13:20:46;;;;;;;2.90;0.70;;;23.80;1.00;;;;;;5074317;28;20091;-84
2022/06/09 13:23:13;;;;;;;4.70;1.13;;;23.10;1.00;;;;;;5072739;28;20040;-84
2022/06/09 13:25:40;;;;;;;6.32;1.58;;;23.40;1.00;;;;;;5074132;28;20378;-85
2022/06/09 13:28:22;;;;;;;7.15;1.75;;;23.70;1.00;;;;;;5073896;28;20036;-84
2022/06/09 13:30:51;;;;;;;3.97;0.88;;;24.80;1.00;;;;;;5073930;28;20478;-83
2022/06/09 13:33:45;;;;;;;6.38;0.98;;;24.70;1.00;;;;;;5074064;28;20425;-84
2022/06/09 13:36:28;;;;;;;8.18;1.30;;;25.20;1.00;;;;;;5051527;28;20048;-84
2022/06/09 13:38:56;;;;;;;6.50;1.00;;;26.00;1.00;;;;;;5073552;28;20041;-84
2022/06/09 13:41:37;;;;;;;5.10;1.02;;;26.80;1.00;;;;;;5073969;28;20125;-85
2022/06/09 13:44:16;;;;;;;6.40;1.15;;;26.60;1.00;;;;;;5073921;28;20087;-84
2022/06/09 13:47:13;;;;;;;5.05;0.80;;;25.70;1.00;;;;;;5073421;28;20076;-83
2022/06/09 13:49:45;;;;;;;3.15;0.90;;;26.70;1.00;;;;;;5074044;28;20090;-84
2022/06/09 13:52:31;;;;;;;4.10;1.10;;;27.20;1.00;;;;;;5073901;28;20044;-85
2022/06/09 13:54:59;;;;;;;5.65;1.50;;;27.00;1.00;;;;;;5073649;28;20036;-84
2022/06/09 13:57:28;;;;;;;3.63;0.93;;;26.40;1.00;;;;;;5074047;28;20079;-84
2022/06/09 13:59:55;;;;;;;4.45;1.13;;;26.40;1.00;;;;;;5073372;28;20079;-85
2022/06/09 14:02:25;;;;;;;6.90;1.20;;;27.30;1.00;;;;;;5073676;28;20044;-84
2022/06/09 14:04:51;;;;;;;7.20;1.00;;;28.00;1.00;;;;;;5073815;28;20147;-84
2022/06/09 14:07:20;;;;;;;7.53;1.13;;;28.40;1.00;;;;;;5073713;28;20049;-83
2022/06/09 14:09:45;;;;;;;4.47;0.90;;;28.20;1.00;;;;;;5073510;28;20080;-84
2022/06/09 14:12:11;;;;;;;7.25;1.05;;;28.00;1.00;;;;;;5072354;28;20125;-84
2022/06/09 14:14:38;;;;;;;4.90;0.98;;;27.90;1.00;;;;;;5073351;28;20052;-85
2022/06/09 14:17:04;;;;;;;5.43;1.20;;;28.20;1.00;;;;;;5073761;28;20131;-85